sensor_id;sensor_type;location;lat;lon;timestamp;pressure;altitude;pressure_sealevel;temperature;humidity
36222;BME280;22266;52.340;4.962;2023-03-01T00:01:23;103245.31;;;3.61;75.05
36222;BME280;22266;52.340;4.962;2023-03-01T00:03:50;103239.03;;;3.62;74.81
36222;BME280;22266;52.340;4.962;2023-03-01T00:06:17;103244.34;;;3.62;74.97
36222;BME280;22266;52.340;4.962;2023-03-01T00:08:44;103243.38;;;3.63;74.62
36222;BME280;22266;52.340;4.962;2023-03-01T00:11:20;103241.59;;;3.63;74.54
36222;BME280;22266;52.340;4.962;2023-03-01T00:13:49;103239.88;;;3.62;74.48
36222;BME280;22266;52.340;4.962;2023-03-01T00:16:21;103239.97;;;3.61;74.53
36222;BME280;22266;52.340;4.962;2023-03-01T00:18:48;103233.75;;;3.60;74.95
36222;BME280;22266;52.340;4.962;2023-03-01T00:21:14;103232.91;;;3.60;74.60
36222;BME280;22266;52.340;4.962;2023-03-01T00:23:41;103232.91;;;3.60;74.60
36222;BME280;22266;52.340;4.962;2023-03-01T00:26:09;103229.38;;;3.59;74.42
36222;BME280;22266;52.340;4.962;2023-03-01T00:28:38;103218.84;;;3.58;74.69
36222;BME280;22266;52.340;4.962;2023-03-01T00:31:09;103220.72;;;3.56;74.29
36222;BME280;22266;52.340;4.962;2023-03-01T00:33:37;103227.28;;;3.50;74.10
36222;BME280;22266;52.340;4.962;2023-03-01T00:36:04;103212.44;;;3.46;74.16
36222;BME280;22266;52.340;4.962;2023-03-01T00:38:35;103217.91;;;3.43;74.21
36222;BME280;22266;52.340;4.962;2023-03-01T00:41:07;103218.03;;;3.41;74.36
36222;BME280;22266;52.340;4.962;2023-03-01T00:43:34;103213.72;;;3.39;74.00
36222;BME280;22266;52.340;4.962;2023-03-01T00:46:11;103220.09;;;3.36;74.21
36222;BME280;22266;52.340;4.962;2023-03-01T00:48:38;103222.09;;;3.33;74.12
36222;BME280;22266;52.340;4.962;2023-03-01T00:51:09;103217.78;;;3.30;74.20
36222;BME280;22266;52.340;4.962;2023-03-01T00:53:36;103210.81;;;3.28;74.29
36222;BME280;22266;52.340;4.962;2023-03-01T00:56:04;103211.88;;;3.25;73.96
36222;BME280;22266;52.340;4.962;2023-03-01T00:58:31;103205.00;;;3.21;74.23
36222;BME280;22266;52.340;4.962;2023-03-01T01:00:58;103204.16;;;3.20;73.89
36222;BME280;22266;52.340;4.962;2023-03-01T01:03:24;103208.78;;;3.17;73.86
36222;BME280;22266;52.340;4.962;2023-03-01T01:05:52;103199.16;;;3.14;73.60
36222;BME280;22266;52.340;4.962;2023-03-01T01:08:20;103210.94;;;3.10;73.67
36222;BME280;22266;52.340;4.962;2023-03-01T01:10:47;103209.22;;;3.09;74.08
36222;BME280;22266;52.340;4.962;2023-03-01T01:13:13;103212.75;;;3.10;73.66
36222;BME280;22266;52.340;4.962;2023-03-01T01:15:40;103208.44;;;3.07;73.69
36222;BME280;22266;52.340;4.962;2023-03-01T01:18:06;103198.16;;;3.01;73.34
36222;BME280;22266;52.340;4.962;2023-03-01T01:20:35;103197.47;;;2.97;73.42
36222;BME280;22266;52.340;4.962;2023-03-01T01:23:01;103200.41;;;2.93;73.55
36222;BME280;22266;52.340;4.962;2023-03-01T01:25:28;103199.81;;;2.88;73.18
36222;BME280;22266;52.340;4.962;2023-03-01T01:27:54;103184.06;;;2.83;73.35
36222;BME280;22266;52.340;4.962;2023-03-01T01:30:21;103179.81;;;2.81;73.26
36222;BME280;22266;52.340;4.962;2023-03-01T01:32:47;103171.03;;;2.79;73.45
36222;BME280;22266;52.340;4.962;2023-03-01T01:35:14;103178.16;;;2.78;73.61
36222;BME280;22266;52.340;4.962;2023-03-01T01:37:40;103170.19;;;2.78;73.34
36222;BME280;22266;52.340;4.962;2023-03-01T01:40:08;103171.22;;;2.76;73.56
36222;BME280;22266;52.340;4.962;2023-03-01T01:42:35;103163.50;;;2.71;73.42
36222;BME280;22266;52.340;4.962;2023-03-01T01:45:31;103173.97;;;2.74;73.43
36222;BME280;22266;52.340;4.962;2023-03-01T01:48:04;103172.16;;;2.75;73.53
36222;BME280;22266;52.340;4.962;2023-03-01T01:50:32;103162.56;;;2.72;73.37
36222;BME280;22266;52.340;4.962;2023-03-01T01:53:11;103160.06;;;2.69;73.21
36222;BME280;22266;52.340;4.962;2023-03-01T01:55:45;103159.28;;;2.67;73.28
36222;BME280;22266;52.340;4.962;2023-03-01T01:58:15;103159.38;;;2.65;73.22
36222;BME280;22266;52.340;4.962;2023-03-01T02:00:44;103159.38;;;2.65;73.08
36222;BME280;22266;52.340;4.962;2023-03-01T02:03:17;103160.50;;;2.61;72.90
36222;BME280;22266;52.340;4.962;2023-03-01T02:05:51;103153.78;;;2.54;73.19
36222;BME280;22266;52.340;4.962;2023-03-01T02:08:23;103158.50;;;2.49;73.14
36222;BME280;22266;52.340;4.962;2023-03-01T02:10:51;103164.00;;;2.46;73.10
36222;BME280;22266;52.340;4.962;2023-03-01T02:13:19;103156.19;;;2.43;73.11
36222;BME280;22266;52.340;4.962;2023-03-01T02:15:45;103156.38;;;2.40;73.03
36222;BME280;22266;52.340;4.962;2023-03-01T02:18:14;103159.19;;;2.37;73.28
36222;BME280;22266;52.340;4.962;2023-03-01T02:23:31;103140.00;;;2.32;73.21
36222;BME280;22266;52.340;4.962;2023-03-01T02:28:36;103142.97;;;2.26;72.76
36222;BME280;22266;52.340;4.962;2023-03-01T02:31:05;103140.47;;;2.22;73.42
36222;BME280;22266;52.340;4.962;2023-03-01T02:33:52;103149.38;;;2.21;72.95
36222;BME280;22266;52.340;4.962;2023-03-01T02:36:24;103140.72;;;2.18;73.10
36222;BME280;22266;52.340;4.962;2023-03-01T02:38:57;103138.16;;;2.16;73.35
36222;BME280;22266;52.340;4.962;2023-03-01T02:41:26;103141.66;;;2.17;73.11
36222;BME280;22266;52.340;4.962;2023-03-01T02:43:55;103141.75;;;2.15;73.00
36222;BME280;22266;52.340;4.962;2023-03-01T02:46:24;103130.44;;;2.12;72.88
36222;BME280;22266;52.340;4.962;2023-03-01T02:48:56;103124.34;;;2.10;73.06
36222;BME280;22266;52.340;4.962;2023-03-01T02:51:42;103127.09;;;2.08;73.09
36222;BME280;22266;52.340;4.962;2023-03-01T02:54:25;103127.25;;;2.05;73.19
36222;BME280;22266;52.340;4.962;2023-03-01T02:56:54;103124.69;;;2.04;73.50
36222;BME280;22266;52.340;4.962;2023-03-01T02:59:26;103123.81;;;2.03;73.20
36222;BME280;22266;52.340;4.962;2023-03-01T03:01:53;103130.84;;;2.04;73.29
36222;BME280;22266;52.340;4.962;2023-03-01T03:04:19;103126.53;;;2.02;73.27
36222;BME280;22266;52.340;4.962;2023-03-01T03:06:49;103122.19;;;2.01;73.09
36222;BME280;22266;52.340;4.962;2023-03-01T03:09:17;103118.78;;;1.98;73.08
36222;BME280;22266;52.340;4.962;2023-03-01T03:11:45;103110.97;;;1.95;73.37
36222;BME280;22266;52.340;4.962;2023-03-01T03:14:14;103107.50;;;1.93;72.79
36222;BME280;22266;52.340;4.962;2023-03-01T03:16:46;103106.81;;;1.90;73.16
36222;BME280;22266;52.340;4.962;2023-03-01T03:19:13;103107.00;;;1.87;73.26
36222;BME280;22266;52.340;4.962;2023-03-01T03:21:40;103107.91;;;1.86;73.44
36222;BME280;22266;52.340;4.962;2023-03-01T03:24:06;103096.53;;;1.84;72.95
36222;BME280;22266;52.340;4.962;2023-03-01T03:26:32;103105.25;;;1.86;73.39
36222;BME280;22266;52.340;4.962;2023-03-01T03:28:59;103092.06;;;1.84;73.38
36222;BME280;22266;52.340;4.962;2023-03-01T03:31:26;103085.91;;;1.84;73.58
36222;BME280;22266;52.340;4.962;2023-03-01T03:33:52;103078.91;;;1.83;73.62
36222;BME280;22266;52.340;4.962;2023-03-01T03:36:22;103088.81;;;1.79;73.09
36222;BME280;22266;52.340;4.962;2023-03-01T03:38:49;103081.88;;;1.77;73.13
36222;BME280;22266;52.340;4.962;2023-03-01T03:41:16;103081.00;;;1.76;73.15
36222;BME280;22266;52.340;4.962;2023-03-01T03:43:43;103070.53;;;1.73;73.26
36222;BME280;22266;52.340;4.962;2023-03-01T03:46:10;103072.44;;;1.71;73.02
36222;BME280;22266;52.340;4.962;2023-03-01T03:48:40;103072.50;;;1.69;73.31
36222;BME280;22266;52.340;4.962;2023-03-01T03:51:10;103076.00;;;1.70;73.14
36222;BME280;22266;52.340;4.962;2023-03-01T03:53:36;103071.75;;;1.67;72.92
36222;BME280;22266;52.340;4.962;2023-03-01T03:56:03;103080.72;;;1.65;72.93
36222;BME280;22266;52.340;4.962;2023-03-01T03:58:31;103081.56;;;1.65;73.07
36222;BME280;22266;52.340;4.962;2023-03-01T04:00:59;103084.31;;;1.64;73.25
36222;BME280;22266;52.340;4.962;2023-03-01T04:03:28;103091.44;;;1.63;72.77
36222;BME280;22266;52.340;4.962;2023-03-01T04:05:57;103084.41;;;1.62;72.85
36222;BME280;22266;52.340;4.962;2023-03-01T04:08:24;103087.06;;;1.62;72.86
36222;BME280;22266;52.340;4.962;2023-03-01T04:10:52;103084.47;;;1.61;72.78
36222;BME280;22266;52.340;4.962;2023-03-01T04:13:22;103078.41;;;1.59;72.83
36222;BME280;22266;52.340;4.962;2023-03-01T04:15:52;103075.91;;;1.56;72.68
36222;BME280;22266;52.340;4.962;2023-03-01T04:18:21;103076.06;;;1.53;72.69
36222;BME280;22266;52.340;4.962;2023-03-01T04:20:48;103075.28;;;1.51;73.14
36222;BME280;22266;52.340;4.962;2023-03-01T04:23:17;103064.81;;;1.47;72.72
36222;BME280;22266;52.340;4.962;2023-03-01T04:25:51;103073.72;;;1.46;73.16
36222;BME280;22266;52.340;4.962;2023-03-01T04:28:33;103074.66;;;1.45;73.25
36222;BME280;22266;52.340;4.962;2023-03-01T04:31:04;103074.66;;;1.45;73.32
36222;BME280;22266;52.340;4.962;2023-03-01T04:33:41;103079.91;;;1.47;73.47
36222;BME280;22266;52.340;4.962;2023-03-01T04:36:08;103070.91;;;1.49;73.33
36222;BME280;22266;52.340;4.962;2023-03-01T04:38:36;103061.31;;;1.47;72.80
36222;BME280;22266;52.340;4.962;2023-03-01T04:41:05;103068.47;;;1.45;72.95
36222;BME280;22266;52.340;4.962;2023-03-01T04:43:32;103060.63;;;1.43;73.21
36222;BME280;22266;52.340;4.962;2023-03-01T04:46:06;103060.78;;;1.40;72.92
36222;BME280;22266;52.340;4.962;2023-03-01T04:48:38;103061.63;;;1.41;73.49
36222;BME280;22266;52.340;4.962;2023-03-01T04:51:05;103062.56;;;1.40;73.20
36222;BME280;22266;52.340;4.962;2023-03-01T04:53:32;103066.06;;;1.40;72.93
36222;BME280;22266;52.340;4.962;2023-03-01T04:55:59;103062.81;;;1.35;72.99
36222;BME280;22266;52.340;4.962;2023-03-01T04:58:27;103067.16;;;1.36;73.04
36222;BME280;22266;52.340;4.962;2023-03-01T05:00:54;103060.31;;;1.32;72.84
36222;BME280;22266;52.340;4.962;2023-03-01T05:03:21;103063.91;;;1.31;73.24
36222;BME280;22266;52.340;4.962;2023-03-01T05:05:51;103056.94;;;1.29;73.44
36222;BME280;22266;52.340;4.962;2023-03-01T05:08:18;103056.00;;;1.30;73.06
36222;BME280;22266;52.340;4.962;2023-03-01T05:10:51;103057.03;;;1.27;73.30
36222;BME280;22266;52.340;4.962;2023-03-01T05:13:19;103053.59;;;1.25;73.12
36222;BME280;22266;52.340;4.962;2023-03-01T05:15:57;103047.44;;;1.24;73.25
36222;BME280;22266;52.340;4.962;2023-03-01T05:18:25;103046.69;;;1.22;73.00
36222;BME280;22266;52.340;4.962;2023-03-01T05:20:53;103040.50;;;1.22;73.14
36222;BME280;22266;52.340;4.962;2023-03-01T05:23:22;103037.91;;;1.20;72.99
36222;BME280;22266;52.340;4.962;2023-03-01T05:25:49;103033.56;;;1.19;73.22
36222;BME280;22266;52.340;4.962;2023-03-01T05:28:19;103035.34;;;1.19;73.52
36222;BME280;22266;52.340;4.962;2023-03-01T05:30:46;103025.59;;;1.19;73.17
36222;BME280;22266;52.340;4.962;2023-03-01T05:33:13;103022.94;;;1.19;73.27
36222;BME280;22266;52.340;4.962;2023-03-01T05:35:42;103014.28;;;1.16;73.19
36222;BME280;22266;52.340;4.962;2023-03-01T05:38:09;103008.28;;;1.12;72.88
36222;BME280;22266;52.340;4.962;2023-03-01T05:40:40;103009.13;;;1.13;73.28
36222;BME280;22266;52.340;4.962;2023-03-01T05:43:07;103006.47;;;1.13;73.43
36222;BME280;22266;52.340;4.962;2023-03-01T05:45:36;103014.44;;;1.13;73.01
36222;BME280;22266;52.340;4.962;2023-03-01T05:48:04;103002.97;;;1.12;73.26
36222;BME280;22266;52.340;4.962;2023-03-01T05:50:37;102999.47;;;1.12;73.01
36222;BME280;22266;52.340;4.962;2023-03-01T05:53:13;103011.88;;;1.11;73.34
36222;BME280;22266;52.340;4.962;2023-03-01T05:55:39;103006.66;;;1.10;73.11
36222;BME280;22266;52.340;4.962;2023-03-01T05:58:09;103001.38;;;1.10;73.31
36222;BME280;22266;52.340;4.962;2023-03-01T06:00:36;103000.66;;;1.06;73.33
36222;BME280;22266;52.340;4.962;2023-03-01T06:03:03;102998.00;;;1.06;73.29
36222;BME280;22266;52.340;4.962;2023-03-01T06:05:29;102991.84;;;1.06;73.00
36222;BME280;22266;52.340;4.962;2023-03-01T06:07:59;102995.41;;;1.05;73.23
36222;BME280;22266;52.340;4.962;2023-03-01T06:10:26;102997.31;;;1.03;73.10
36222;BME280;22266;52.340;4.962;2023-03-01T06:12:53;102998.31;;;1.00;73.17
36222;BME280;22266;52.340;4.962;2023-03-01T06:15:20;102994.03;;;0.97;73.34
36222;BME280;22266;52.340;4.962;2023-03-01T06:17:46;102995.75;;;0.98;72.77
36222;BME280;22266;52.340;4.962;2023-03-01T06:20:21;103001.06;;;0.98;73.26
36222;BME280;22266;52.340;4.962;2023-03-01T06:22:48;102989.59;;;0.98;73.46
36222;BME280;22266;52.340;4.962;2023-03-01T06:25:21;102986.94;;;0.98;72.90
36222;BME280;22266;52.340;4.962;2023-03-01T06:27:48;102986.00;;;0.99;72.83
36222;BME280;22266;52.340;4.962;2023-03-01T06:30:16;102985.00;;;1.02;73.26
36222;BME280;22266;52.340;4.962;2023-03-01T06:32:43;102990.28;;;1.02;73.09
36222;BME280;22266;52.340;4.962;2023-03-01T06:35:11;102992.00;;;1.03;73.09
36222;BME280;22266;52.340;4.962;2023-03-01T06:37:38;102997.31;;;1.03;72.95
36222;BME280;22266;52.340;4.962;2023-03-01T06:40:06;102998.16;;;1.03;73.01
36222;BME280;22266;52.340;4.962;2023-03-01T06:42:35;102999.00;;;1.04;73.12
36222;BME280;22266;52.340;4.962;2023-03-01T06:45:03;103001.56;;;1.05;73.28
36222;BME280;22266;52.340;4.962;2023-03-01T06:47:30;102995.34;;;1.06;73.24
36222;BME280;22266;52.340;4.962;2023-03-01T06:49:57;102991.75;;;1.07;73.28
36222;BME280;22266;52.340;4.962;2023-03-01T06:52:23;102994.25;;;1.10;73.40
36222;BME280;22266;52.340;4.962;2023-03-01T06:54:50;102997.66;;;1.12;73.30
36222;BME280;22266;52.340;4.962;2023-03-01T06:57:16;102995.47;;;1.20;72.94
36222;BME280;22266;52.340;4.962;2023-03-01T06:59:43;103000.72;;;1.22;72.75
36222;BME280;22266;52.340;4.962;2023-03-01T07:02:13;102995.47;;;1.20;73.01
36222;BME280;22266;52.340;4.962;2023-03-01T07:04:40;103002.59;;;1.20;73.14
36222;BME280;22266;52.340;4.962;2023-03-01T07:07:07;103006.03;;;1.22;73.20
36222;BME280;22266;52.340;4.962;2023-03-01T07:09:34;103007.19;;;1.34;73.40
36222;BME280;22266;52.340;4.962;2023-03-01T07:12:01;103006.28;;;1.51;72.66
36222;BME280;22266;52.340;4.962;2023-03-01T07:14:28;103010.28;;;1.58;72.26
36222;BME280;22266;52.340;4.962;2023-03-01T07:16:54;103005.69;;;1.61;72.33
36222;BME280;22266;52.340;4.962;2023-03-01T07:19:22;103013.34;;;1.67;72.58
36222;BME280;22266;52.340;4.962;2023-03-01T07:21:48;103022.84;;;1.71;72.43
36222;BME280;22266;52.340;4.962;2023-03-01T07:24:15;103022.75;;;1.73;72.30
36222;BME280;22266;52.340;4.962;2023-03-01T07:26:41;103025.94;;;1.80;72.43
36222;BME280;22266;52.340;4.962;2023-03-01T07:29:09;103023.78;;;1.86;72.47
36222;BME280;22266;52.340;4.962;2023-03-01T07:31:36;103027.06;;;1.91;72.40
36222;BME280;22266;52.340;4.962;2023-03-01T07:34:03;103028.63;;;1.95;72.53
36222;BME280;22266;52.340;4.962;2023-03-01T07:36:29;103023.16;;;1.98;72.37
36222;BME280;22266;52.340;4.962;2023-03-01T07:38:56;103016.53;;;2.06;72.71
36222;BME280;22266;52.340;4.962;2023-03-01T07:41:24;103023.38;;;2.10;72.75
36222;BME280;22266;52.340;4.962;2023-03-01T07:43:50;103029.13;;;2.18;73.36
36222;BME280;22266;52.340;4.962;2023-03-01T07:46:17;103026.13;;;2.24;73.82
36222;BME280;22266;52.340;4.962;2023-03-01T07:48:45;103024.75;;;2.33;74.23
36222;BME280;22266;52.340;4.962;2023-03-01T07:51:11;103020.03;;;2.38;73.60
36222;BME280;22266;52.340;4.962;2023-03-01T07:53:38;103019.44;;;2.48;73.94
36222;BME280;22266;52.340;4.962;2023-03-01T07:58:34;103021.22;;;2.64;74.25
36222;BME280;22266;52.340;4.962;2023-03-01T08:01:05;103023.31;;;2.73;74.37
36222;BME280;22266;52.340;4.962;2023-03-01T08:03:32;103023.63;;;2.83;74.24
36222;BME280;22266;52.340;4.962;2023-03-01T08:05:59;103033.06;;;2.88;74.06
36222;BME280;22266;52.340;4.962;2023-03-01T08:08:26;103028.34;;;2.93;74.31
36222;BME280;22266;52.340;4.962;2023-03-01T08:10:56;103030.44;;;3.03;74.62
36222;BME280;22266;52.340;4.962;2023-03-01T08:13:23;103029.34;;;3.21;74.66
36222;BME280;22266;52.340;4.962;2023-03-01T08:15:49;103020.63;;;3.33;74.22
36222;BME280;22266;52.340;4.962;2023-03-01T08:18:17;103024.34;;;3.45;74.30
36222;BME280;22266;52.340;4.962;2023-03-01T08:20:43;103026.63;;;3.51;73.46
36222;BME280;22266;52.340;4.962;2023-03-01T08:23:10;103022.44;;;3.61;73.53
36222;BME280;22266;52.340;4.962;2023-03-01T08:25:37;103022.22;;;3.64;72.86
36222;BME280;22266;52.340;4.962;2023-03-01T08:28:04;103016.16;;;3.62;73.46
36222;BME280;22266;52.340;4.962;2023-03-01T08:30:31;103020.63;;;3.62;73.31
36222;BME280;22266;52.340;4.962;2023-03-01T08:32:58;103013.97;;;3.69;73.64
36222;BME280;22266;52.340;4.962;2023-03-01T08:35:24;103018.72;;;3.78;72.86
36222;BME280;22266;52.340;4.962;2023-03-01T08:37:51;103017.56;;;3.82;73.21
36222;BME280;22266;52.340;4.962;2023-03-01T08:40:17;103023.94;;;3.94;73.39
36222;BME280;22266;52.340;4.962;2023-03-01T08:42:44;103017.91;;;4.05;72.88
36222;BME280;22266;52.340;4.962;2023-03-01T08:45:11;103011.03;;;4.15;72.56
36222;BME280;22266;52.340;4.962;2023-03-01T08:47:38;103013.09;;;4.24;72.13
36222;BME280;22266;52.340;4.962;2023-03-01T08:50:05;103007.47;;;4.29;71.62
36222;BME280;22266;52.340;4.962;2023-03-01T08:52:32;103010.44;;;4.24;71.96
36222;BME280;22266;52.340;4.962;2023-03-01T08:54:58;103014.06;;;4.23;71.97
36222;BME280;22266;52.340;4.962;2023-03-01T08:57:27;103012.38;;;4.22;71.96
36222;BME280;22266;52.340;4.962;2023-03-01T08:59:54;103012.38;;;4.22;72.01
36222;BME280;22266;52.340;4.962;2023-03-01T09:02:22;103007.34;;;4.17;72.06
36222;BME280;22266;52.340;4.962;2023-03-01T09:04:48;103008.56;;;4.12;71.95
36222;BME280;22266;52.340;4.962;2023-03-01T09:07:15;103003.94;;;4.01;72.27
36222;BME280;22266;52.340;4.962;2023-03-01T09:09:41;103002.81;;;3.91;72.48
36222;BME280;22266;52.340;4.962;2023-03-01T09:12:08;103001.22;;;3.74;72.75
36222;BME280;22266;52.340;4.962;2023-03-01T09:14:34;102989.63;;;3.61;73.08
36222;BME280;22266;52.340;4.962;2023-03-01T09:17:03;102999.81;;;3.54;73.54
36222;BME280;22266;52.340;4.962;2023-03-01T09:19:30;102997.03;;;3.41;73.85
36222;BME280;22266;52.340;4.962;2023-03-01T09:21:56;102994.75;;;3.50;74.42
36222;BME280;22266;52.340;4.962;2023-03-01T09:24:24;102993.44;;;3.57;74.38
36222;BME280;22266;52.340;4.962;2023-03-01T09:26:54;102994.75;;;3.64;74.88
36222;BME280;22266;52.340;4.962;2023-03-01T09:29:21;102987.53;;;3.66;74.09
36222;BME280;22266;52.340;4.962;2023-03-01T09:31:48;102992.84;;;3.66;74.85
36222;BME280;22266;52.340;4.962;2023-03-01T09:34:15;102993.03;;;3.63;74.08
36222;BME280;22266;52.340;4.962;2023-03-01T09:36:45;102989.81;;;3.58;74.19
36222;BME280;22266;52.340;4.962;2023-03-01T09:39:11;102995.03;;;3.59;74.49
36222;BME280;22266;52.340;4.962;2023-03-01T09:44:10;102984.84;;;3.80;76.16
36222;BME280;22266;52.340;4.962;2023-03-01T09:46:44;102992.81;;;3.94;74.92
36222;BME280;22266;52.340;4.962;2023-03-01T09:49:18;102985.00;;;4.06;74.56
36222;BME280;22266;52.340;4.962;2023-03-01T09:51:58;102983.63;;;4.13;73.34
36222;BME280;22266;52.340;4.962;2023-03-01T09:54:26;102986.28;;;4.13;73.78
36222;BME280;22266;52.340;4.962;2023-03-01T09:57:00;102978.41;;;4.11;73.55
36222;BME280;22266;52.340;4.962;2023-03-01T09:59:45;102990.69;;;4.14;73.40
36222;BME280;22266;52.340;4.962;2023-03-01T10:02:30;102982.41;;;4.04;72.74
36222;BME280;22266;52.340;4.962;2023-03-01T10:05:23;102988.09;;;3.85;73.39
36222;BME280;22266;52.340;4.962;2023-03-01T10:10:48;102982.66;;;3.72;73.91
36222;BME280;22266;52.340;4.962;2023-03-01T10:15:53;102983.53;;;3.59;74.90
36222;BME280;22266;52.340;4.962;2023-03-01T10:18:26;102982.69;;;3.58;75.22
36222;BME280;22266;52.340;4.962;2023-03-01T10:21:02;102980.41;;;3.66;76.21
36222;BME280;22266;52.340;4.962;2023-03-01T10:23:31;102981.50;;;3.77;75.55
36222;BME280;22266;52.340;4.962;2023-03-01T10:26:33;102971.50;;;3.94;75.67
36222;BME280;22266;52.340;4.962;2023-03-01T10:29:08;102969.66;;;4.09;74.38
36222;BME280;22266;52.340;4.962;2023-03-01T10:31:45;102968.22;;;4.18;74.88
36222;BME280;22266;52.340;4.962;2023-03-01T10:34:21;102963.66;;;4.33;74.73
36222;BME280;22266;52.340;4.962;2023-03-01T10:36:56;102955.50;;;4.49;74.03
36222;BME280;22266;52.340;4.962;2023-03-01T10:39:25;102949.78;;;4.55;73.52
36222;BME280;22266;52.340;4.962;2023-03-01T10:42:01;102940.63;;;4.71;73.19
36222;BME280;22266;52.340;4.962;2023-03-01T10:44:37;102939.78;;;4.84;72.09
36222;BME280;22266;52.340;4.962;2023-03-01T10:47:03;102932.22;;;4.90;71.17
36222;BME280;22266;52.340;4.962;2023-03-01T10:49:31;102930.50;;;4.89;70.81
36222;BME280;22266;52.340;4.962;2023-03-01T10:52:11;102927.28;;;4.97;70.26
36222;BME280;22266;52.340;4.962;2023-03-01T10:54:52;102925.91;;;5.04;69.89
36222;BME280;22266;52.340;4.962;2023-03-01T10:57:35;102933.38;;;5.12;69.95
36222;BME280;22266;52.340;4.962;2023-03-01T11:05:26;102916.72;;;5.08;67.81
36222;BME280;22266;52.340;4.962;2023-03-01T11:07:56;102916.72;;;5.08;67.80
36222;BME280;22266;52.340;4.962;2023-03-01T11:10:28;102917.38;;;5.12;67.11
36222;BME280;22266;52.340;4.962;2023-03-01T11:13:18;102914.78;;;5.10;66.92
36222;BME280;22266;52.340;4.962;2023-03-01T11:16:05;102915.44;;;5.14;67.03
36222;BME280;22266;52.340;4.962;2023-03-01T11:18:33;102911.59;;;5.18;66.51
36222;BME280;22266;52.340;4.962;2023-03-01T11:21:15;102902.72;;;5.17;65.90
36222;BME280;22266;52.340;4.962;2023-03-01T11:23:43;102892.50;;;5.11;65.33
36222;BME280;22266;52.340;4.962;2023-03-01T11:26:13;102898.16;;;5.07;65.17
36222;BME280;22266;52.340;4.962;2023-03-01T11:28:42;102898.38;;;5.04;65.16
36222;BME280;22266;52.340;4.962;2023-03-01T11:31:11;102896.97;;;4.98;65.04
36222;BME280;22266;52.340;4.962;2023-03-01T11:33:55;102885.03;;;4.91;65.00
36222;BME280;22266;52.340;4.962;2023-03-01T11:36:31;102885.97;;;4.90;63.90
36222;BME280;22266;52.340;4.962;2023-03-01T11:39:05;102883.88;;;4.95;64.40
36222;BME280;22266;52.340;4.962;2023-03-01T11:41:39;102891.41;;;5.01;63.71
36222;BME280;22266;52.340;4.962;2023-03-01T11:44:20;102879.16;;;5.11;63.67
36222;BME280;22266;52.340;4.962;2023-03-01T11:47:10;102878.16;;;5.25;62.85
36222;BME280;22266;52.340;4.962;2023-03-01T11:52:24;102874.53;;;5.63;63.65
36222;BME280;22266;52.340;4.962;2023-03-01T11:55:30;102871.94;;;5.74;62.73
36222;BME280;22266;52.340;4.962;2023-03-01T12:09:58;102849.06;;;5.70;60.89
36222;BME280;22266;52.340;4.962;2023-03-01T12:12:58;102841.41;;;5.89;60.43
36222;BME280;22266;52.340;4.962;2023-03-01T12:18:29;102840.50;;;6.02;56.71
36222;BME280;22266;52.340;4.962;2023-03-01T12:26:33;102836.16;;;6.01;58.18
36222;BME280;22266;52.340;4.962;2023-03-01T12:40:38;102826.50;;;6.22;56.36
36222;BME280;22266;52.340;4.962;2023-03-01T12:43:54;102825.50;;;6.23;57.50
36222;BME280;22266;52.340;4.962;2023-03-01T12:46:58;102827.88;;;6.39;56.81
36222;BME280;22266;52.340;4.962;2023-03-01T12:49:38;102829.94;;;6.47;55.86
36222;BME280;22266;52.340;4.962;2023-03-01T12:54:40;102825.41;;;6.36;54.46
36222;BME280;22266;52.340;4.962;2023-03-01T12:57:16;102826.88;;;6.29;54.36
36222;BME280;22266;52.340;4.962;2023-03-01T12:59:58;102816.03;;;6.19;54.42
36222;BME280;22266;52.340;4.962;2023-03-01T13:02:41;102814.34;;;6.29;55.10
36222;BME280;22266;52.340;4.962;2023-03-01T13:11:03;102797.47;;;6.29;57.14
36222;BME280;22266;52.340;4.962;2023-03-01T13:13:30;102795.16;;;6.35;57.91
36222;BME280;22266;52.340;4.962;2023-03-01T13:15:57;102786.66;;;6.41;58.41
36222;BME280;22266;52.340;4.962;2023-03-01T13:18:43;102791.53;;;6.48;58.62
36222;BME280;22266;52.340;4.962;2023-03-01T13:21:10;102798.72;;;6.58;58.41
36222;BME280;22266;52.340;4.962;2023-03-01T13:23:38;102789.13;;;6.67;58.08
36222;BME280;22266;52.340;4.962;2023-03-01T13:26:15;102777.69;;;6.65;58.70
36222;BME280;22266;52.340;4.962;2023-03-01T13:33:46;102771.59;;;6.52;58.13
36222;BME280;22266;52.340;4.962;2023-03-01T13:39:26;102765.72;;;6.35;56.76
36222;BME280;22266;52.340;4.962;2023-03-01T13:41:55;102754.09;;;6.36;56.50
36222;BME280;22266;52.340;4.962;2023-03-01T13:44:30;102753.34;;;6.46;56.52
36222;BME280;22266;52.340;4.962;2023-03-01T13:49:57;102742.28;;;6.50;55.81
36222;BME280;22266;52.340;4.962;2023-03-01T13:52:42;102747.53;;;6.40;55.98
36222;BME280;22266;52.340;4.962;2023-03-01T13:55:51;102747.97;;;6.34;56.90
36222;BME280;22266;52.340;4.962;2023-03-01T13:58:33;102744.22;;;6.37;56.43
36222;BME280;22266;52.340;4.962;2023-03-01T14:01:35;102729.75;;;6.39;56.81
36222;BME280;22266;52.340;4.962;2023-03-01T14:04:03;102732.44;;;6.51;56.47
36222;BME280;22266;52.340;4.962;2023-03-01T14:06:43;102723.31;;;6.53;57.04
36222;BME280;22266;52.340;4.962;2023-03-01T14:09:22;102720.75;;;6.52;56.49
36222;BME280;22266;52.340;4.962;2023-03-01T14:14:39;102714.16;;;6.22;55.28
36222;BME280;22266;52.340;4.962;2023-03-01T14:19:57;102711.00;;;6.17;55.25
36222;BME280;22266;52.340;4.962;2023-03-01T14:22:27;102694.75;;;6.20;55.16
36222;BME280;22266;52.340;4.962;2023-03-01T14:25:00;102685.75;;;6.21;55.35
36222;BME280;22266;52.340;4.962;2023-03-01T14:27:35;102682.56;;;6.27;56.75
36222;BME280;22266;52.340;4.962;2023-03-01T14:30:11;102683.56;;;6.37;55.57
36222;BME280;22266;52.340;4.962;2023-03-01T14:32:40;102676.25;;;6.39;55.40
36222;BME280;22266;52.340;4.962;2023-03-01T14:35:27;102674.56;;;6.38;55.03
36222;BME280;22266;52.340;4.962;2023-03-01T14:37:54;102679.41;;;6.33;56.11
36222;BME280;22266;52.340;4.962;2023-03-01T14:40:27;102685.47;;;6.35;56.32